Terminal Aerodrome Forecast
Issued by NWS Mt. Holly, NJ

Home | Current Version | Previous Version | Text Only | Print | Product List | Glossary On
Versions: 1 2 3 4 5 6 7 8 9 10 11 12 13 14 15 16 17 18 19 20 21
422
FTUS41 KPHI 241000 AAB
TAFABE
TAF AMD
KABE 241000Z 2410/2506 27006KT P6SM VCSH OVC045
      TEMPO 2410/2412 5SM SHRA OVC025
     FM241400 32012G20KT P6SM SCT035
     FM241800 29012G22KT P6SM SKC=

USA.gov is the U.S. government's official web portal to all federal, state and local government web resources and services.